A- A+ FrançaisEnglishEspañol中国

le plus proche LFBT Tarbes-Lourdes-PyrénéesLFCI Albi-Le-SequestreLFRN Rennes-St-Jacques LFBS Biscarrosse-Parentis

manche à air

La météo aéronautique pour les pilotes, la préparation du vol avec les METAR (METeorological Aerodrome Report, message d'observation des conditions météorologiques pour l'aviation) et Les TAF (Terminal Aerodrome Forecast : message de prévision à court terme des conditions météorologiques pour l'aviation). Et les autres ressources comme les VAC (Visual Approch Chart) et les NOTAM (Notice To Airman) pour préprer les vols.

Aéroport Radom (Pologne) / OACI EPRA/ IATA RDO

L'altitude de l'aéroport Radom est de 186 m=610 ft. Il est situé à proximité de Radom (Pologne). La météo générale à 5 jours est disponible pour Radom situé à 5 km.

METAR de l'aéroport Radom - EPRA

EPRA 221500Z 11012KT 9999 BKN011 01/01 Q1020

Décodage du METAR de l'aéroport Radom (PL)

METAR émis par EPRA le vendredi 22 novembre 2019 à 15:00 heure TU. Attention ce METAR est obsolète car il a été émis il y a 14 heure et 38 minutes.

La visibilité est de supérieure à 10 km=supérieure à 6.2 sm.

La température est de 1°C=34 °F et le point rosée est de 1°C=34 °F . Ce qui correspond à 100% d'humidité relative.

Le QNH est de 1020 hPa=30.12 inHg

Vent de 12 kt=22 km/h, orienté à 110°.

Nuages : Couverture nuageuse fragmentée à 1100 ft=340 mètres.

TAF de l'aéroport Radom - EPRA

EPRA 091502Z 0915/0924 19010KT CAVOK TEMPO 0915/0918 BKN033

EPRA 091502Z 0915/0924 19010KT visibilité supérieure à 10km, aucun nuage à une hauteur inférieure à 5000 ft ou sous l'altitude minimale de secteur et aucun cumulonimbus ou cumulus bourgeonnant, quelle que soit leur altitude temporairement 0915/0918 couverture nuageuse fragmentée à 033

Aéroport à proximité de Radom

Météo générale à 5 jours à Radom (5 km)EPRP Aéroport Radom Piastow (12 km)EPDE Aéroport Deblin (50 km)EPNM Aéroport Nowe Miasto (54 km)EPKA Aéroport Kilece Maslow (64 km)EPTM Aéroport Tomaszow Mazowiecki (80 km)EPLR Aéroport Lublin Radawiec (84 km)

VAC de l'aéroport Radom - EPRA

La carte d'approche à vue (VAC Visual Approah Chart) est fournie sans aucune garantie de son actualité. Le pilote est le seul responsable de la vérification de sa validité avant de l'utiliser opérationnellement pour préparer un vol ou l'utiliser lors de sa navigation.

VAC de EPRA

Vue aérienne de l'aéroport Radom

NOTAM de l'aéroport Radom

Les NOTAM sont fournis sans aucune garantie de leur actualité. Le pilote est le seul responsable de la vérification de sa validité avant de l'utiliser opérationnellement pour préparer un vol ou l'utiliser lors de sa navigation.

Pas de NOTAM

Sources des données